Time;durP1;ratioP1;P1;durP2;ratioP2;P2;SDS_P1;SDS_P2;PMS_P1;PMS_P2;Temp;Humidity;BMP_temperature;BMP_pressure;BME280_temperature;BME280_humidity;BME280_pressure;Samples;Min_cycle;Max_cycle;Signal;HPM_P1;HPM_P2
2023/01/04 00:02:24;;;;;;;3.78;1.10;;;;;14.60;101590.00;;;;5048517;28;20206;-77
2023/01/04 00:04:52;;;;;;;2.42;1.20;;;;;14.60;101587.00;;;;5048393;28;20666;-77
2023/01/04 00:07:20;;;;;;;1.73;1.23;;;;;14.50;101584.00;;;;5049174;28;20230;-77
2023/01/04 00:09:47;;;;;;;2.78;1.30;;;;;14.60;101580.00;;;;5052809;28;20199;-77
2023/01/04 00:12:15;;;;;;;3.33;1.15;;;;;14.50;101588.00;;;;5052050;28;20203;-77
2023/01/04 00:14:44;;;;;;;3.03;1.10;;;;;14.60;101580.00;;;;5051837;28;20223;-77
2023/01/04 00:17:11;;;;;;;3.67;1.42;;;;;14.50;101569.00;;;;5052004;28;20299;-77
2023/01/04 00:19:39;;;;;;;3.92;1.00;;;;;14.50;101558.00;;;;5050782;28;20203;-78
2023/01/04 00:22:06;;;;;;;2.60;0.95;;;;;14.50;101543.00;;;;5052402;28;20246;-78
2023/01/04 00:24:35;;;;;;;3.30;1.00;;;;;14.50;101549.00;;;;5052323;28;20198;-78
2023/01/04 00:27:02;;;;;;;2.40;0.80;;;;;14.50;101559.00;;;;5052292;28;20227;-78
2023/01/04 00:29:29;;;;;;;2.40;1.15;;;;;14.50;101541.00;;;;5051070;28;20211;-78
2023/01/04 00:31:57;;;;;;;4.13;1.02;;;;;14.50;101533.00;;;;5048913;28;20246;-77
2023/01/04 00:34:24;;;;;;;1.80;0.90;;;;;14.50;101527.00;;;;5052131;28;20206;-78
2023/01/04 00:36:51;;;;;;;2.90;0.90;;;;;14.50;101523.00;;;;5070054;28;20207;-78
2023/01/04 00:39:18;;;;;;;3.97;1.10;;;;;14.50;101520.00;;;;5071311;28;20214;-77
2023/01/04 00:41:49;;;;;;;2.28;1.02;;;;;14.40;101513.00;;;;5071706;28;20209;-78
2023/01/04 00:44:16;;;;;;;1.88;1.20;;;;;14.50;101505.00;;;;5069523;28;20237;-78
2023/01/04 00:46:44;;;;;;;3.08;1.05;;;;;14.50;101492.00;;;;5071416;28;20316;-78
2023/01/04 00:49:12;;;;;;;3.97;1.25;;;;;14.50;101493.00;;;;5071043;28;20202;-78
2023/01/04 00:51:42;;;;;;;1.42;0.82;;;;;14.50;101487.00;;;;5053109;28;20222;-78
2023/01/04 00:54:12;;;;;;;2.45;0.77;;;;;14.40;101495.00;;;;5051184;28;20202;-78
2023/01/04 00:56:40;;;;;;;2.28;0.90;;;;;14.50;101481.00;;;;5051174;28;20206;-77
2023/01/04 00:59:10;;;;;;;2.40;0.85;;;;;14.40;101471.00;;;;5050782;28;20204;-78
2023/01/04 01:01:37;;;;;;;2.40;0.60;;;;;14.50;101484.00;;;;5051191;28;20207;-78
2023/01/04 01:04:05;;;;;;;2.08;0.82;;;;;14.50;101474.00;;;;5051153;28;20200;-77
2023/01/04 01:06:33;;;;;;;1.83;0.70;;;;;14.50;101458.00;;;;5050482;28;20775;-78
2023/01/04 01:09:01;;;;;;;1.85;1.02;;;;;14.50;101459.00;;;;5051221;28;20196;-77
2023/01/04 01:11:29;;;;;;;0.98;0.80;;;;;14.50;101444.00;;;;5050824;28;20195;-77
2023/01/04 01:13:57;;;;;;;1.88;0.60;;;;;14.50;101447.00;;;;5051304;28;20207;-78
2023/01/04 01:16:26;;;;;;;1.35;0.80;;;;;14.50;101437.00;;;;5050116;28;20222;-78
2023/01/04 01:18:54;;;;;;;1.95;0.90;;;;;14.50;101439.00;;;;5056694;28;20208;-78
2023/01/04 01:21:24;;;;;;;1.10;0.57;;;;;14.50;101423.00;;;;5070829;28;20198;-78
2023/01/04 01:23:51;;;;;;;3.00;0.60;;;;;14.50;101432.00;;;;5066939;28;20230;-77
2023/01/04 01:26:20;;;;;;;1.95;0.63;;;;;14.50;101426.00;;;;5050493;28;20230;-77
2023/01/04 01:28:48;;;;;;;2.00;0.85;;;;;14.50;101425.00;;;;5050489;28;20227;-77
2023/01/04 01:31:16;;;;;;;3.47;0.70;;;;;14.50;101422.00;;;;5050674;28;20203;-78
2023/01/04 01:33:47;;;;;;;2.80;0.82;;;;;14.60;101418.00;;;;5067334;28;20195;-78
2023/01/04 01:36:16;;;;;;;0.70;0.70;;;;;14.60;101412.00;;;;5071029;28;20217;-78
2023/01/04 01:38:43;;;;;;;0.98;0.60;;;;;14.60;101417.00;;;;5070486;28;20191;-77
2023/01/04 01:41:18;;;;;;;1.98;0.85;;;;;14.60;101410.00;;;;5063155;28;20305;-77
2023/01/04 01:43:52;;;;;;;1.25;0.95;;;;;14.60;101410.00;;;;5049264;28;20230;-77
2023/01/04 01:46:23;;;;;;;1.52;0.68;;;;;14.70;101401.00;;;;5049492;28;20204;-77
2023/01/04 01:48:55;;;;;;;2.65;0.90;;;;;14.70;101406.00;;;;5049543;28;20203;-77
2023/01/04 01:51:22;;;;;;;0.98;0.50;;;;;14.70;101407.00;;;;5049436;28;20192;-77
2023/01/04 01:53:57;;;;;;;1.63;0.90;;;;;14.70;101404.00;;;;5049479;28;20215;-78
2023/01/04 01:56:26;;;;;;;0.82;0.60;;;;;14.80;101394.00;;;;5049100;28;20199;-77
2023/01/04 01:58:55;;;;;;;0.70;0.60;;;;;14.80;101403.00;;;;5050374;28;20637;-77
2023/01/04 02:01:22;;;;;;;1.00;0.70;;;;;14.80;101411.00;;;;5049176;28;20211;-77
2023/01/04 02:03:51;;;;;;;0.77;0.65;;;;;14.80;101405.00;;;;5047498;28;20191;-78
2023/01/04 02:06:22;;;;;;;1.52;0.60;;;;;14.80;101419.00;;;;5049363;28;20203;-77
2023/01/04 02:08:50;;;;;;;1.15;0.80;;;;;14.80;101420.00;;;;5049225;28;20203;-78
2023/01/04 02:11:18;;;;;;;1.27;0.68;;;;;14.90;101405.00;;;;5049139;28;20203;-78
2023/01/04 02:16:45;;;;;;;0.80;0.45;;;;;14.80;101396.00;;;;5049254;28;20571;-77
2023/01/04 02:19:36;;;;;;;1.10;0.88;;;;;14.80;101401.00;;;;5056435;28;20727;-78
2023/01/04 02:22:58;;;;;;;0.63;0.60;;;;;14.80;101391.00;;;;5068801;28;20538;-78
2023/01/04 02:26:02;;;;;;;1.13;0.57;;;;;14.80;101393.00;;;;4981343;28;20197;-78
2023/01/04 02:28:47;;;;;;;1.13;0.55;;;;;14.90;101392.00;;;;5004996;28;20232;-77
2023/01/04 02:31:27;;;;;;;2.30;0.85;;;;;14.90;101389.00;;;;5065095;28;20206;-78
2023/01/04 02:34:03;;;;;;;0.75;0.60;;;;;15.00;101371.00;;;;5048714;28;20207;-78
2023/01/04 02:36:36;;;;;;;1.00;0.70;;;;;15.00;101382.00;;;;5048242;28;20233;-78
2023/01/04 02:39:14;;;;;;;3.10;1.10;;;;;15.00;101364.00;;;;5048371;28;20275;-78
2023/01/04 02:41:47;;;;;;;1.80;0.90;;;;;15.10;101377.00;;;;5048652;28;20589;-78
2023/01/04 02:47:08;;;;;;;1.25;0.75;;;;;15.10;101367.00;;;;5048228;28;20250;-78
2023/01/04 02:52:21;;;;;;;1.33;1.00;;;;;15.20;101356.00;;;;5048469;28;20207;-77
2023/01/04 02:54:52;;;;;;;1.33;0.90;;;;;15.20;101339.00;;;;5048108;28;20210;-77
2023/01/04 02:57:31;;;;;;;0.80;0.73;;;;;15.20;101352.00;;;;5048678;28;20199;-78
2023/01/04 03:00:09;;;;;;;1.20;0.75;;;;;15.20;101347.00;;;;5048580;28;20218;-77
2023/01/04 03:08:38;;;;;;;2.33;1.08;;;;;15.30;101341.00;;;;5048820;28;20742;-78
2023/01/04 03:12:30;;;;;;;1.13;1.02;;;;;15.30;101343.00;;;;5048132;28;20195;-78
2023/01/04 03:13:59;;;;;;;1.30;0.93;;;;;15.30;101336.00;;;;5049270;28;20286;-78
2023/01/04 03:16:28;;;;;;;1.20;1.10;;;;;15.40;101355.00;;;;5048358;28;20196;-77
2023/01/04 03:19:03;;;;;;;1.75;1.00;;;;;15.30;101345.00;;;;5048732;28;20297;-77
2023/01/04 03:21:32;;;;;;;1.25;1.15;;;;;15.40;101345.00;;;;5057752;28;20206;-78
2023/01/04 03:35:46;;;;;;;1.58;1.05;;;;;15.40;101318.00;;;;5006700;28;20298;-78
2023/01/04 03:49:44;;;;;;;1.25;1.15;;;;;15.60;101306.00;;;;5053880;28;20261;-77
2023/01/04 03:52:14;;;;;;;6.95;1.50;;;;;15.60;101296.00;;;;5056600;28;20199;-78
2023/01/04 03:54:44;;;;;;;1.30;1.20;;;;;15.60;101298.00;;;;5067729;28;20195;-78
2023/01/04 03:57:13;;;;;;;2.00;1.45;;;;;15.70;101302.00;;;;5061866;28;20709;-78
2023/01/04 03:59:47;;;;;;;1.65;1.13;;;;;15.70;101304.00;;;;5047863;28;20210;-77
2023/01/04 04:02:18;;;;;;;1.60;1.13;;;;;15.70;101293.00;;;;5048333;28;20689;-77
2023/01/04 04:10:16;;;;;;;2.00;1.65;;;;;15.80;101290.00;;;;5052234;28;20329;-77
2023/01/04 04:12:44;;;;;;;1.98;1.42;;;;;15.80;101279.00;;;;5067631;28;20203;-78
2023/01/04 04:15:12;;;;;;;3.25;1.42;;;;;15.80;101286.00;;;;5053568;28;20224;-77
2023/01/04 04:17:39;;;;;;;1.33;1.23;;;;;15.90;101281.00;;;;5048238;28;20210;-78
2023/01/04 04:20:07;;;;;;;1.67;1.58;;;;;15.90;101274.00;;;;5048419;28;20217;-78
2023/01/04 04:22:36;;;;;;;1.52;1.42;;;;;15.90;101259.00;;;;5047714;28;20200;-77
2023/01/04 04:25:03;;;;;;;1.50;1.40;;;;;16.00;101249.00;;;;5048321;28;20203;-78
2023/01/04 04:27:31;;;;;;;1.42;1.33;;;;;16.00;101248.00;;;;5047195;28;20223;-77
2023/01/04 04:29:58;;;;;;;1.75;1.50;;;;;16.00;101255.00;;;;5061715;28;20218;-77
2023/01/04 04:32:26;;;;;;;1.52;1.25;;;;;16.00;101251.00;;;;5051089;28;20207;-77
2023/01/04 04:34:53;;;;;;;1.50;1.40;;;;;16.10;101252.00;;;;5053605;28;20201;-78
2023/01/04 04:37:21;;;;;;;1.73;1.55;;;;;16.10;101259.00;;;;5067683;28;20222;-78
2023/01/04 04:39:49;;;;;;;2.75;1.67;;;;;16.10;101258.00;;;;5068045;28;20210;-77
2023/01/04 04:42:15;;;;;;;1.50;1.30;;;;;16.20;101244.00;;;;5068044;28;20206;-77
2023/01/04 04:44:43;;;;;;;1.83;1.40;;;;;16.20;101244.00;;;;5049884;28;20238;-77
2023/01/04 04:47:10;;;;;;;2.28;1.15;;;;;16.20;101247.00;;;;5047248;28;20250;-77
2023/01/04 04:49:37;;;;;;;1.00;0.90;;;;;16.20;101245.00;;;;5065510;28;20202;-77
2023/01/04 04:52:04;;;;;;;1.30;1.00;;;;;16.30;101235.00;;;;5068138;28;20202;-77
2023/01/04 04:54:32;;;;;;;1.58;1.30;;;;;16.30;101242.00;;;;5070642;28;20195;-77
2023/01/04 04:57:00;;;;;;;1.42;1.25;;;;;16.30;101230.00;;;;5071255;28;20199;-77
2023/01/04 04:59:27;;;;;;;1.40;1.30;;;;;16.30;101230.00;;;;5069915;28;20196;-77
2023/01/04 05:01:55;;;;;;;1.10;1.00;;;;;16.30;101234.00;;;;5071533;28;20203;-78
2023/01/04 05:04:22;;;;;;;1.05;0.98;;;;;16.40;101231.00;;;;5070893;28;20669;-77
2023/01/04 05:06:51;;;;;;;1.58;1.15;;;;;16.40;101228.00;;;;5051560;28;20211;-77
2023/01/04 05:09:19;;;;;;;1.05;0.95;;;;;16.40;101232.00;;;;5057682;28;20222;-77
2023/01/04 05:14:32;;;;;;;1.42;1.30;;;;;16.40;101217.00;;;;5070548;28;20558;-78
2023/01/04 05:17:00;;;;;;;1.58;1.48;;;;;16.40;101227.00;;;;5071466;28;20203;-78
2023/01/04 05:19:27;;;;;;;1.52;1.42;;;;;16.40;101233.00;;;;5057766;28;20211;-78
2023/01/04 05:21:54;;;;;;;1.75;1.40;;;;;16.40;101229.00;;;;5054543;28;20206;-78
2023/01/04 05:24:21;;;;;;;1.50;1.25;;;;;16.40;101229.00;;;;5069859;28;20195;-78
2023/01/04 05:26:48;;;;;;;1.70;1.60;;;;;16.40;101220.00;;;;5069821;28;20195;-78
2023/01/04 05:31:58;;;;;;;1.40;1.30;;;;;16.40;101212.00;;;;5050680;28;20695;-78
2023/01/04 05:34:25;;;;;;;1.35;1.25;;;;;16.50;101215.00;;;;5050383;28;20207;-78
2023/01/04 05:36:53;;;;;;;2.10;1.80;;;;;16.40;101200.00;;;;5050091;28;20260;-77
2023/01/04 05:39:20;;;;;;;1.67;1.58;;;;;16.40;101188.00;;;;5057975;28;20207;-77
2023/01/04 05:44:32;;;;;;;1.70;1.60;;;;;16.40;101193.00;;;;5070003;28;20309;-77
2023/01/04 05:47:01;;;;;;;4.95;1.58;;;;;16.40;101196.00;;;;5051652;28;20192;-78
2023/01/04 05:49:29;;;;;;;1.90;1.80;;;;;16.40;101192.00;;;;5049691;28;20228;-79
2023/01/04 05:51:56;;;;;;;1.92;1.63;;;;;16.40;101178.00;;;;5050436;28;20199;-79
2023/01/04 05:54:23;;;;;;;1.63;1.52;;;;;16.40;101165.00;;;;5049706;28;20203;-78
2023/01/04 05:56:50;;;;;;;2.92;1.83;;;;;16.40;101171.00;;;;5061601;28;20217;-78
2023/01/04 05:59:17;;;;;;;1.55;1.45;;;;;16.40;101177.00;;;;5069697;28;20677;-78
2023/01/04 06:01:45;;;;;;;1.40;1.30;;;;;16.40;101173.00;;;;5070755;28;20210;-78
2023/01/04 06:04:13;;;;;;;1.48;1.30;;;;;16.40;101172.00;;;;5058592;28;20298;-78
2023/01/04 06:06:40;;;;;;;1.33;1.23;;;;;16.50;101179.00;;;;5049399;28;20199;-78
2023/01/04 06:09:08;;;;;;;1.55;1.30;;;;;16.50;101188.00;;;;5049712;28;20266;-78
2023/01/04 06:11:35;;;;;;;3.30;1.35;;;;;16.50;101163.00;;;;5055520;28;20457;-78
2023/01/04 06:14:02;;;;;;;1.30;1.20;;;;;16.50;101164.00;;;;5056684;28;20208;-78
2023/01/04 06:16:30;;;;;;;1.60;1.15;;;;;16.50;101175.00;;;;5049045;28;20577;-78
2023/01/04 06:18:57;;;;;;;1.30;1.20;;;;;16.50;101155.00;;;;5048911;28;20195;-78
2023/01/04 06:21:25;;;;;;;1.02;1.00;;;;;16.50;101165.00;;;;5048508;28;20203;-78
2023/01/04 06:23:53;;;;;;;1.20;1.10;;;;;16.50;101172.00;;;;5048909;28;20203;-78
2023/01/04 06:26:21;;;;;;;1.45;1.35;;;;;16.50;101183.00;;;;5049027;28;20200;-78
2023/01/04 06:28:48;;;;;;;1.40;1.30;;;;;16.50;101185.00;;;;5048687;28;20271;-78
2023/01/04 06:31:15;;;;;;;1.40;1.30;;;;;16.50;101197.00;;;;5060363;28;20199;-78
2023/01/04 06:33:42;;;;;;;1.50;1.38;;;;;16.50;101195.00;;;;5069259;28;20203;-78
2023/01/04 06:36:10;;;;;;;1.20;1.10;;;;;16.50;101185.00;;;;5068631;28;20572;-78
2023/01/04 06:38:38;;;;;;;1.60;1.40;;;;;16.60;101200.00;;;;5051551;28;20211;-78
2023/01/04 06:41:05;;;;;;;1.50;1.40;;;;;16.60;101184.00;;;;5054863;28;20206;-78
2023/01/04 06:43:33;;;;;;;1.17;1.00;;;;;16.60;101190.00;;;;5067799;28;20202;-78
2023/01/04 06:46:00;;;;;;;1.63;1.23;;;;;16.60;101182.00;;;;5066563;28;20206;-78
2023/01/04 06:48:27;;;;;;;1.23;1.02;;;;;16.60;101174.00;;;;5050768;28;20231;-78
2023/01/04 06:50:55;;;;;;;1.20;1.10;;;;;16.60;101168.00;;;;5065354;28;20211;-78
2023/01/04 06:53:22;;;;;;;2.38;1.60;;;;;16.70;101168.00;;;;5068286;28;20202;-78
2023/01/04 06:55:50;;;;;;;1.38;1.20;;;;;16.60;101171.00;;;;5068864;28;20195;-78
2023/01/04 06:58:18;;;;;;;1.27;1.17;;;;;16.70;101163.00;;;;5068136;28;20549;-78
2023/01/04 07:00:46;;;;;;;1.65;1.40;;;;;16.70;101160.00;;;;5068830;28;20202;-78
2023/01/04 07:03:13;;;;;;;1.95;1.08;;;;;16.70;101154.00;;;;5069187;28;20202;-77
2023/01/04 07:05:40;;;;;;;1.63;0.95;;;;;16.70;101144.00;;;;5052739;28;20195;-78
2023/01/04 07:08:07;;;;;;;1.55;1.38;;;;;16.70;101145.00;;;;5068863;28;20230;-78
2023/01/04 07:10:34;;;;;;;1.60;1.15;;;;;16.80;101137.00;;;;5068787;28;20198;-78
2023/01/04 07:13:03;;;;;;;3.42;1.58;;;;;16.70;101135.00;;;;5067825;28;20199;-79
2023/01/04 07:15:30;;;;;;;4.57;1.20;;;;;16.80;101136.00;;;;5068437;28;20256;-79
2023/01/04 07:17:58;;;;;;;2.80;1.35;;;;;16.80;101137.00;;;;5067399;28;20203;-79
2023/01/04 07:20:25;;;;;;;1.67;1.02;;;;;16.80;101135.00;;;;5058386;28;20205;-78
2023/01/04 07:22:53;;;;;;;3.33;1.40;;;;;16.80;101140.00;;;;5048892;28;20207;-78
2023/01/04 07:25:20;;;;;;;2.08;1.38;;;;;16.80;101136.00;;;;5047575;28;20573;-78
2023/01/04 07:27:52;;;;;;;4.13;1.20;;;;;16.70;101115.00;;;;5048845;28;20206;-78
2023/01/04 07:30:21;;;;;;;3.65;1.30;;;;;16.80;101122.00;;;;5048405;28;20231;-78
2023/01/04 07:32:49;;;;;;;1.95;0.95;;;;;16.80;101127.00;;;;5048691;28;20689;-78
2023/01/04 07:35:16;;;;;;;1.00;0.90;;;;;16.80;101110.00;;;;5055925;28;20191;-78
2023/01/04 07:37:44;;;;;;;1.92;0.93;;;;;16.80;101119.00;;;;5065526;28;20203;-78
2023/01/04 07:40:12;;;;;;;2.33;1.23;;;;;16.80;101120.00;;;;5068567;28;20202;-78
2023/01/04 07:42:39;;;;;;;1.35;0.80;;;;;16.80;101113.00;;;;5068202;28;20214;-78
2023/01/04 07:45:08;;;;;;;4.10;0.80;;;;;16.80;101112.00;;;;5068709;28;20234;-78
2023/01/04 07:47:36;;;;;;;1.77;0.88;;;;;16.80;101106.00;;;;5061150;28;20211;-78
2023/01/04 07:50:04;;;;;;;3.25;1.00;;;;;16.80;101112.00;;;;5047696;28;20241;-78
2023/01/04 07:52:32;;;;;;;1.92;0.60;;;;;16.90;101111.00;;;;5047955;28;20204;-79
2023/01/04 07:54:59;;;;;;;1.85;0.60;;;;;16.90;101118.00;;;;5048305;28;20210;-78
2023/01/04 07:57:26;;;;;;;1.02;0.70;;;;;16.90;101110.00;;;;5048130;28;20199;-78
2023/01/04 07:59:53;;;;;;;1.30;0.50;;;;;16.90;101113.00;;;;5048802;28;20195;-78
2023/01/04 08:02:21;;;;;;;1.75;0.70;;;;;16.90;101116.00;;;;5048088;28;20206;-79
2023/01/04 08:04:49;;;;;;;2.28;0.63;;;;;16.90;101108.00;;;;5051849;28;20195;-78
2023/01/04 08:07:16;;;;;;;1.25;0.75;;;;;16.90;101116.00;;;;5065888;28;20207;-78
2023/01/04 08:09:44;;;;;;;1.23;0.70;;;;;16.90;101114.00;;;;5068459;28;20226;-78
2023/01/04 08:12:11;;;;;;;1.83;0.75;;;;;16.90;101106.00;;;;5062017;28;20207;-78
2023/01/04 08:14:38;;;;;;;2.08;0.70;;;;;16.90;101117.00;;;;5046989;28;20677;-79
2023/01/04 08:17:05;;;;;;;1.10;0.60;;;;;16.90;101131.00;;;;5048238;28;20208;-78
2023/01/04 08:19:32;;;;;;;1.98;0.60;;;;;16.90;101135.00;;;;5048722;28;20203;-78
2023/01/04 08:22:01;;;;;;;2.20;0.95;;;;;16.90;101122.00;;;;5048195;28;20187;-78
2023/01/04 08:24:28;;;;;;;0.57;0.50;;;;;16.90;101121.00;;;;5050148;28;20198;-78
2023/01/04 08:26:56;;;;;;;0.80;0.55;;;;;16.90;101133.00;;;;5067224;28;20209;-78
2023/01/04 08:29:24;;;;;;;1.90;0.60;;;;;16.90;101128.00;;;;5068226;28;20231;-78
2023/01/04 08:31:51;;;;;;;1.13;0.63;;;;;16.90;101124.00;;;;5070322;28;20214;-78
2023/01/04 08:34:18;;;;;;;0.85;0.73;;;;;16.90;101131.00;;;;5071915;28;20198;-78
2023/01/04 08:36:48;;;;;;;0.60;0.35;;;;;16.90;101126.00;;;;5071716;28;20198;-79
2023/01/04 08:39:17;;;;;;;1.40;0.52;;;;;16.90;101129.00;;;;5071256;28;20298;-78
2023/01/04 08:41:51;;;;;;;1.15;0.60;;;;;16.90;101120.00;;;;5060929;28;20200;-78
2023/01/04 08:44:19;;;;;;;0.80;0.60;;;;;16.90;101133.00;;;;5065472;28;20327;-78
2023/01/04 08:46:47;;;;;;;0.85;0.52;;;;;16.90;101123.00;;;;5059627;28;20206;-77
2023/01/04 08:49:14;;;;;;;0.60;0.60;;;;;16.90;101122.00;;;;5069379;28;20609;-78
2023/01/04 08:51:42;;;;;;;0.65;0.45;;;;;16.90;101113.00;;;;5061035;28;20200;-79
2023/01/04 08:54:10;;;;;;;1.00;0.50;;;;;16.90;101120.00;;;;5070825;28;20213;-78
2023/01/04 08:56:39;;;;;;;1.92;0.63;;;;;16.90;101120.00;;;;5069596;28;20681;-78
2023/01/04 08:59:07;;;;;;;0.35;0.30;;;;;17.00;101117.00;;;;5049964;28;20198;-78
2023/01/04 09:01:35;;;;;;;1.17;0.50;;;;;17.00;101124.00;;;;5050741;28;20203;-78
2023/01/04 09:04:03;;;;;;;1.10;0.63;;;;;17.00;101119.00;;;;5051718;28;20576;-79
2023/01/04 09:06:30;;;;;;;0.85;0.65;;;;;17.00;101126.00;;;;5050449;28;20208;-78
2023/01/04 09:08:57;;;;;;;1.40;0.65;;;;;17.00;101126.00;;;;5049726;28;20250;-79
2023/01/04 09:11:26;;;;;;;0.70;0.70;;;;;17.00;101135.00;;;;5050297;28;20211;-78
2023/01/04 09:13:57;;;;;;;1.33;1.00;;;;;17.00;101138.00;;;;5050309;28;20202;-78
2023/01/04 09:16:24;;;;;;;2.33;0.93;;;;;17.00;101146.00;;;;5050420;28;20199;-79
2023/01/04 09:18:52;;;;;;;1.40;1.05;;;;;17.00;101132.00;;;;5050051;28;20200;-78
2023/01/04 09:21:21;;;;;;;1.10;1.00;;;;;17.00;101144.00;;;;5065518;28;20677;-78
2023/01/04 09:23:49;;;;;;;2.47;0.90;;;;;17.00;101133.00;;;;5070506;28;20197;-79
2023/01/04 09:26:20;;;;;;;2.25;1.15;;;;;17.00;101143.00;;;;5062802;28;20202;-78
2023/01/04 09:28:47;;;;;;;1.23;0.90;;;;;17.00;101154.00;;;;5064502;28;20254;-78
2023/01/04 09:31:18;;;;;;;2.22;1.10;;;;;17.00;101146.00;;;;5050121;28;20210;-78
2023/01/04 09:33:45;;;;;;;2.55;1.85;;;;;17.10;101151.00;;;;5049287;28;20207;-79
2023/01/04 09:36:15;;;;;;;2.15;1.25;;;;;17.10;101154.00;;;;5057533;28;20203;-79
2023/01/04 09:38:43;;;;;;;1.35;0.85;;;;;17.10;101149.00;;;;5064258;28;20202;-79
2023/01/04 09:41:20;;;;;;;1.88;1.45;;;;;17.10;101154.00;;;;5070083;28;20203;-79
2023/01/04 09:43:48;;;;;;;1.63;1.15;;;;;17.10;101149.00;;;;5067324;28;20213;-79
2023/01/04 09:46:24;;;;;;;2.60;1.52;;;;;17.10;101152.00;;;;5049133;28;20204;-79
2023/01/04 09:48:58;;;;;;;1.20;1.05;;;;;17.10;101157.00;;;;5049093;28;20292;-79
2023/01/04 09:51:34;;;;;;;1.60;1.23;;;;;17.10;101155.00;;;;5048740;28;20195;-78
2023/01/04 09:54:06;;;;;;;1.45;1.35;;;;;17.10;101153.00;;;;5049183;28;20692;-78
2023/01/04 09:56:36;;;;;;;1.90;1.10;;;;;17.20;101164.00;;;;5048961;28;20207;-78
2023/01/04 09:59:08;;;;;;;0.95;0.80;;;;;17.10;101164.00;;;;5056960;28;20203;-78
2023/01/04 10:01:43;;;;;;;1.25;1.00;;;;;17.10;101151.00;;;;5069445;28;20211;-78
2023/01/04 10:04:19;;;;;;;1.17;0.90;;;;;17.10;101146.00;;;;5069485;28;20194;-76
2023/01/04 10:06:46;;;;;;;1.13;0.95;;;;;17.20;101155.00;;;;5069141;28;20234;-76
2023/01/04 10:09:16;;;;;;;2.15;1.15;;;;;17.20;101159.00;;;;5067892;28;20313;-79
2023/01/04 10:12:04;;;;;;;1.45;1.30;;;;;17.20;101170.00;;;;5058643;28;20208;-79
2023/01/04 10:14:51;;;;;;;1.60;1.13;;;;;17.10;101174.00;;;;5049244;28;20737;-79
2023/01/04 10:17:29;;;;;;;2.88;1.20;;;;;17.20;101168.00;;;;5049155;28;20203;-79
2023/01/04 10:20:11;;;;;;;1.13;0.80;;;;;17.20;101165.00;;;;5048743;28;20210;-79
2023/01/04 10:22:45;;;;;;;2.05;0.95;;;;;17.20;101170.00;;;;5052472;28;20198;-79
2023/01/04 10:25:27;;;;;;;1.50;1.05;;;;;17.20;101166.00;;;;5063599;28;20197;-79
2023/01/04 10:28:10;;;;;;;1.65;0.98;;;;;17.20;101171.00;;;;5049467;28;20214;-79
2023/01/04 10:30:46;;;;;;;1.50;0.70;;;;;17.20;101157.00;;;;5048610;28;20231;-79
2023/01/04 10:33:18;;;;;;;0.98;0.75;;;;;17.20;101154.00;;;;5058933;28;20206;-77
2023/01/04 10:35:46;;;;;;;2.00;0.98;;;;;17.30;101155.00;;;;5067499;28;20210;-76
2023/01/04 10:38:17;;;;;;;2.30;0.75;;;;;17.30;101157.00;;;;5068342;28;20199;-76
2023/01/04 10:40:47;;;;;;;2.72;0.93;;;;;17.30;101157.00;;;;5068637;28;20203;-76
2023/01/04 10:43:24;;;;;;;1.50;0.70;;;;;17.30;101161.00;;;;5069154;28;20281;-76
2023/01/04 10:46:00;;;;;;;1.17;0.98;;;;;17.30;101151.00;;;;5056778;28;20772;-76
2023/01/04 10:48:38;;;;;;;1.40;0.93;;;;;17.30;101146.00;;;;5048261;28;20290;-77
2023/01/04 10:51:06;;;;;;;1.25;0.57;;;;;17.30;101149.00;;;;5047353;28;20242;-77
2023/01/04 10:53:40;;;;;;;0.95;0.70;;;;;17.30;101144.00;;;;5048728;28;20199;-76
2023/01/04 10:56:15;;;;;;;0.28;0.28;;;;;17.40;101143.00;;;;5048317;28;20253;-76
2023/01/04 10:58:49;;;;;;;1.15;0.70;;;;;17.40;101145.00;;;;5048117;28;20203;-77
2023/01/04 11:01:22;;;;;;;0.70;0.55;;;;;17.40;101140.00;;;;5048386;28;20210;-77
2023/01/04 11:03:57;;;;;;;0.85;0.70;;;;;17.40;101154.00;;;;5054999;28;20264;-77
2023/01/04 11:06:28;;;;;;;1.30;0.55;;;;;17.40;101142.00;;;;5068149;28;20198;-77
2023/01/04 11:08:59;;;;;;;1.63;0.88;;;;;17.40;101140.00;;;;5068057;28;20218;-76
2023/01/04 11:11:32;;;;;;;1.33;0.75;;;;;17.40;101141.00;;;;5067864;28;20191;-77
2023/01/04 11:14:00;;;;;;;0.90;0.38;;;;;17.50;101142.00;;;;5068030;28;20207;-77
2023/01/04 11:16:28;;;;;;;0.65;0.30;;;;;17.50;101137.00;;;;5066404;28;20575;-77
2023/01/04 11:18:57;;;;;;;0.60;0.40;;;;;17.50;101126.00;;;;5061924;28;20215;-77
2023/01/04 11:21:28;;;;;;;0.88;0.50;;;;;17.50;101136.00;;;;5047972;28;20203;-77
2023/01/04 11:23:59;;;;;;;0.75;0.30;;;;;17.50;101130.00;;;;5047824;28;20210;-77
2023/01/04 11:26:32;;;;;;;1.88;0.45;;;;;17.40;101118.00;;;;5047986;28;20673;-77
2023/01/04 11:29:04;;;;;;;1.02;0.30;;;;;17.50;101127.00;;;;5047548;28;20227;-77
2023/01/04 11:31:41;;;;;;;0.60;0.50;;;;;17.50;101115.00;;;;5047213;28;20234;-77
2023/01/04 11:34:09;;;;;;;1.05;0.60;;;;;17.50;101119.00;;;;5046841;28;20195;-77
2023/01/04 11:36:40;;;;;;;1.17;0.55;;;;;17.40;101120.00;;;;5047964;28;20558;-77
2023/01/04 11:39:18;;;;;;;1.30;0.40;;;;;17.40;101119.00;;;;5048418;28;20203;-77
2023/01/04 11:41:56;;;;;;;1.63;0.60;;;;;17.40;101118.00;;;;5048739;28;20210;-77
2023/01/04 11:44:24;;;;;;;2.78;0.70;;;;;17.50;101110.00;;;;5058298;28;20284;-77
2023/01/04 11:47:07;;;;;;;1.63;0.50;;;;;17.40;101103.00;;;;5047114;28;20282;-77
2023/01/04 11:49:38;;;;;;;1.42;0.50;;;;;17.50;101101.00;;;;5052131;28;20237;-77
2023/01/04 11:52:07;;;;;;;2.80;1.00;;;;;17.50;101089.00;;;;5068326;28;20195;-77
2023/01/04 11:54:34;;;;;;;2.17;0.88;;;;;17.50;101090.00;;;;5050394;28;20295;-77
2023/01/04 11:57:06;;;;;;;1.05;0.85;;;;;17.50;101091.00;;;;5048009;28;20199;-78
2023/01/04 11:59:33;;;;;;;2.55;0.90;;;;;17.50;101093.00;;;;5061450;28;20256;-77
2023/01/04 12:02:20;;;;;;;2.20;0.88;;;;;17.50;101108.00;;;;5069637;28;20194;-77
2023/01/04 12:04:50;;;;;;;3.03;0.80;;;;;17.60;101117.00;;;;5072527;28;20585;-77
2023/01/04 12:07:27;;;;;;;2.05;1.40;;;;;17.50;101120.00;;;;5072100;28;20198;-77
2023/01/04 12:09:54;;;;;;;2.58;1.02;;;;;17.60;101108.00;;;;5067659;28;20723;-77
2023/01/04 12:12:24;;;;;;;2.13;0.98;;;;;17.60;101092.00;;;;5052016;28;20223;-77
2023/01/04 12:14:52;;;;;;;3.45;0.98;;;;;17.70;101100.00;;;;5057195;28;20202;-77
2023/01/04 12:17:25;;;;;;;3.90;1.27;;;;;17.70;101090.00;;;;5071750;28;20194;-77
2023/01/04 12:19:57;;;;;;;3.15;1.10;;;;;17.70;101090.00;;;;5061295;28;20654;-77
2023/01/04 12:22:31;;;;;;;2.28;0.82;;;;;17.70;101084.00;;;;5050691;28;20200;-77
2023/01/04 12:25:00;;;;;;;1.95;0.88;;;;;17.80;101090.00;;;;5051138;28;20198;-77
2023/01/04 12:27:27;;;;;;;3.35;0.90;;;;;17.80;101082.00;;;;5051656;28;20212;-77
2023/01/04 12:29:57;;;;;;;1.98;1.00;;;;;17.80;101085.00;;;;5069963;28;20229;-77
2023/01/04 12:32:42;;;;;;;2.10;1.00;;;;;17.70;101083.00;;;;5071542;28;20214;-77
2023/01/04 12:36:02;;;;;;;2.30;0.90;;;;;17.80;101080.00;;;;5071419;28;20218;-78
2023/01/04 12:39:15;;;;;;;1.63;0.60;;;;;17.80;101087.00;;;;5053335;28;20203;-77
2023/01/04 12:42:25;;;;;;;2.92;0.75;;;;;17.80;101087.00;;;;5027280;28;20200;-77
2023/01/04 12:45:23;;;;;;;0.85;0.73;;;;;17.80;101076.00;;;;5049729;28;20227;-77
2023/01/04 12:51:13;;;;;;;1.58;0.60;;;;;17.80;101089.00;;;;5068404;28;20283;-77
2023/01/04 12:53:58;;;;;;;3.92;0.95;;;;;17.90;101080.00;;;;5062232;28;20202;-77
2023/01/04 12:57:11;;;;;;;3.63;0.80;;;;;17.90;101100.00;;;;5059658;28;20200;-77
2023/01/04 12:59:53;;;;;;;2.72;0.75;;;;;17.90;101092.00;;;;5045476;28;20503;-77
2023/01/04 13:02:26;;;;;;;1.63;0.70;;;;;18.00;101075.00;;;;5048398;28;20296;-77
2023/01/04 13:04:55;;;;;;;1.60;0.50;;;;;18.00;101081.00;;;;5054361;28;20554;-77
2023/01/04 13:07:26;;;;;;;2.63;0.90;;;;;18.10;101081.00;;;;5050038;28;20191;-77
2023/01/04 13:09:57;;;;;;;4.10;1.10;;;;;18.10;101081.00;;;;5050309;28;20239;-77
2023/01/04 13:12:42;;;;;;;4.13;0.93;;;;;18.00;101085.00;;;;5050013;28;20290;-76
2023/01/04 13:15:19;;;;;;;2.05;0.73;;;;;18.10;101095.00;;;;5063664;28;20199;-77
2023/01/04 13:17:47;;;;;;;4.82;0.85;;;;;18.10;101102.00;;;;5067329;28;20259;-77
2023/01/04 13:20:17;;;;;;;2.75;0.60;;;;;18.10;101091.00;;;;5050425;28;20196;-76
2023/01/04 13:22:51;;;;;;;2.00;0.63;;;;;18.10;101087.00;;;;5050042;28;20559;-77